Impacts TAF Board
For situational awareness. Not to be used for flight planning purposes.
IDs:

KBHB - Bar Harbor/Hancock C, ME, US

Issued at 1720 UTC 01 Feb 2023
Updated at 2325 UTC 01 Feb 2023
Potential Impact None Slight Moderate High
Time2256Z 02/00Z 02/01Z 02/02Z 02/03Z 02/04Z 02/05Z 02/06Z 02/07Z 02/08Z 02/09Z 02/10Z 02/11Z 02/12Z>>
Type OBS PRVL PRVL PRVL PRVL PRVL PRVL PRVL PRVL PRVL PRVL PRVL PRVL PRVL
VIS 10 >6 >6 >6 >6 >6 >6 >6 >6 >6 >6 >6 >6 >6
CIG 120 -- -- -- -- -- -- -- -- -- -- -- -- --
Cover OVC FEW FEW FEW FEW FEW FEW FEW FEW FEW FEW FEW FEW SCT
FltCat VFR VFR VFR VFR VFR VFR VFR VFR VFR VFR VFR VFR VFR VFR
WX -- -- -- -- -- -- -- -- -- -- -- -- -- --
WDir 250 VRB VRB VRB VRB VRB VRB VRB VRB VRB VRB VRB VRB 250
WSpd 3 4 4 4 4 4 4 4 4 4 4 4 4 5
WGst -- -- -- -- -- -- -- -- -- -- -- -- -- --
WSHgt -- -- -- -- -- -- -- -- -- -- -- -- -- --
WSDir -- -- -- -- -- -- -- -- -- -- -- -- -- --
WSSpd -- -- -- -- -- -- -- -- -- -- -- -- -- --

NOTE: LAMP data beyond the time of the TAF data is denoted as LAMP in Type and colored magenta.

Raw TAF
KBHB 011720Z 0118/0218 VRB04KT P6SM FEW150
  FM021200 25005KT P6SM SCT120


Raw METAR
KBHB 012256Z AUTO 25003KT 10SM OVC120 M09/M17 A3022 RMK AO2 SLP235 T10941172 FZRANO
KBHB 012156Z AUTO 00000KT 10SM CLR M09/M18 A3021 RMK AO2 SLP232 T10941178 FZRANO
KBHB 012056Z AUTO 22005KT 10SM CLR M07/M18 A3020 RMK AO2 SLP230 T10671178 56008 FZRANO

METAR Board
Radar Display
Forecast Discussion

For situational awareness. Not to be used for flight planning purposes.